Observations for PRESTWICK CIV NAVY, United Kingdom (EGPK)

EGPK 200620Z 00000KT CAVOK 09/07 Q1031  
EGPK 200550Z 00000KT CAVOK 09/06 Q1031  
EGPK 200450Z 00000KT CAVOK 08/05 Q1031  
EGPK 200350Z 00000KT CAVOK 07/05 Q1031  
EGPK 200250Z 00000KT CAVOK 08/06 Q1031  
EGPK 200150Z 00000KT CAVOK 09/06 Q1031  
EGPK 200120Z 10002KT CAVOK 09/06 Q1031  
EGPK 192350Z 00000KT CAVOK 12/07 Q1031  
EGPK 192250Z 00000KT CAVOK 12/07 Q1031  
EGPK 192220Z 00000KT CAVOK 12/07 Q1031  
EGPK 192150Z 00000KT CAVOK 12/08 Q1031  
EGPK 192120Z 13004KT CAVOK 12/08 Q1031  
EGPK 192050Z 00000KT CAVOK 13/08 Q1031  
EGPK 192020Z 00000KT CAVOK 13/08 Q1031  
EGPK 191950Z 00000KT CAVOK 15/07 Q1031  
EGPK 191920Z 00000KT CAVOK 15/08 Q1030  
EGPK 191850Z 13004KT CAVOK 16/08 Q1030  
EGPK 191820Z 00000KT CAVOK 17/08 Q1030  
EGPK 191750Z 00000KT CAVOK 16/07 Q1030  
EGPK 191720Z VRB02KT CAVOK 16/07 Q1030  
EGPK 191650Z 28004KT 240V300 CAVOK 17/06 Q1030  
EGPK 191620Z 28003KT CAVOK 18/06 Q1030  
EGPK 191550Z VRB03KT CAVOK 19/05 Q1030  
EGPK 191520Z 27005KT CAVOK 19/06 Q1030  
EGPK 191450Z 29004KT CAVOK 19/06 Q1030  
EGPK 191420Z 27007KT CAVOK 19/06 Q1030  
EGPK 191350Z 28007KT CAVOK 20/06 Q1030  
EGPK 191320Z 29006KT CAVOK 20/07 Q1030  
EGPK 191250Z 27005KT CAVOK 20/08 Q1030  
EGPK 191220Z 25005KT 210V290 CAVOK 21/08 Q1030  
EGPK 191150Z 14007KT 100V180 CAVOK 21/05 Q1030  
EGPK 191120Z 15008KT CAVOK 20/05 Q1030  
EGPK 191050Z 16008KT CAVOK 19/06 Q1030  
EGPK 191020Z 16007KT CAVOK 19/06 Q1030  
EGPK 190950Z 15006KT CAVOK 18/05 Q1030  
EGPK 190920Z VRB02KT CAVOK 17/06 Q1030  
EGPK 190850Z 07002KT CAVOK 16/07 Q1030  
EGPK 190820Z 03003KT CAVOK 13/07 Q1030  
EGPK 190750Z 00000KT 9999 FEW045 12/07 Q1030
EGPK 190720Z 00000KT 9999 FEW045 10/07 Q1030
EGPK 190650Z 00000KT 9999 FEW045 08/06 Q1030
EGPK 190620Z 00000KT 9999 FEW045 07/05 Q1030
EGPK 190550Z 00000KT 9999 FEW045 07/05 Q1030